Hauptseite
METAR-TAF:

METAR-TAF

Flughäfen :

DeKalb Taylor Municipal Airport

DeKalb, Illinois, Vereinigte Staaten

Breite: 41-55-55N, Länge: 088-42-30W, Höhe: 279 m

Beobachtung

Neuester Wetterbericht von vor 31 Minuten, um 05:15 UTC
Wind 13 kt aus Südwest
Temperatur 14°C
Luftfeuchtigkeit 63%
Luftdruck 998 hPa
Sichtweite: 16.1 km
Aufgelockert bewölkt in der Höhe von 8500 ft

METAR: KDKB 290515Z AUTO 23013KT 10SM SCT085 14/07 A2946 RMK AO2 T01400066

Zeit: 00:46 (05:46 UTC)


TAF: fehlend

Wetterbeobachtungen und Prognosen von mehr als 4000 Flughäfen (METAR und TAF Bericht).

Die verfügbaren Stationen werden durch gelbe und rote Markierungen auf der Karte dargestellt.

Führen Sie die Maus auf sie, um den Namen der Station zu sehen.

Darauf klicken, um die Beobachtung von Wetterbeobachtungen und Prognosen zu sehen.

Um die Karte zu ändern : klicken Sie auf den grünen Tasten mit einem schwarzen Kreuz Zum Vergrößern, auf den grünen Button mit einem Gedankenstrich zu verkleinern, oder auf die grünen Pfeile für benachbarte Karten.


METAR-TAF: